createdAt,value
2022-12-12T00:03:56.536Z,22.90
2022-12-12T00:07:58.091Z,21.27
2022-12-12T00:11:59.518Z,23.00
2022-12-12T00:16:01.343Z,22.40
2022-12-12T00:20:03.992Z,20.10
2022-12-12T00:24:05.819Z,22.33
2022-12-12T00:28:07.215Z,23.05
2022-12-12T00:32:08.634Z,23.52
2022-12-12T00:36:10.593Z,21.65
2022-12-12T00:40:12.555Z,21.55
2022-12-12T00:44:13.963Z,23.27
2022-12-12T00:48:15.388Z,23.20
2022-12-12T00:52:16.832Z,22.88
2022-12-12T00:56:19.844Z,21.02
2022-12-12T01:00:22.305Z,21.25
2022-12-12T01:04:23.733Z,20.77
2022-12-12T01:08:25.257Z,19.88
2022-12-12T01:12:26.852Z,21.35
2022-12-12T01:16:29.448Z,20.85
2022-12-12T01:20:30.994Z,18.10
2022-12-12T01:24:32.529Z,19.08
2022-12-12T01:28:34.496Z,20.52
2022-12-12T01:32:35.993Z,20.95
2022-12-12T01:36:37.547Z,18.02
2022-12-12T01:40:39.382Z,19.70
2022-12-12T01:44:49.249Z,19.05
2022-12-12T01:48:56.933Z,17.98
2022-12-12T01:52:58.396Z,19.20
2022-12-12T01:57:04.142Z,16.58
2022-12-12T02:01:05.584Z,16.65
2022-12-12T02:05:17.382Z,18.25
2022-12-12T02:09:20.220Z,17.63
2022-12-12T02:13:26.697Z,16.10
2022-12-12T02:17:46.552Z,21.17
2022-12-12T02:21:55.094Z,18.95
2022-12-12T02:26:13.087Z,17.65
2022-12-12T02:30:22.206Z,19.00
2022-12-12T02:34:49.733Z,17.45
2022-12-12T02:39:08.562Z,19.42
2022-12-12T02:43:14.127Z,16.38
2022-12-12T02:47:19.292Z,17.73
2022-12-12T02:51:21.341Z,18.80
2022-12-12T02:55:22.749Z,17.40
2022-12-12T02:59:27.567Z,16.30
2022-12-12T03:03:54.212Z,17.75
2022-12-12T03:08:47.068Z,18.88
2022-12-12T03:13:00.870Z,20.00
2022-12-12T03:17:11.461Z,19.08
2022-12-12T03:21:22.193Z,16.52
2022-12-12T03:25:34.692Z,17.20
2022-12-12T03:29:46.944Z,17.20
2022-12-12T03:34:01.572Z,19.63
2022-12-12T03:38:22.060Z,16.30
2022-12-12T03:42:42.362Z,17.10
2022-12-12T03:47:01.622Z,19.25
2022-12-12T03:51:27.932Z,19.50
2022-12-12T03:55:54.134Z,22.02
2022-12-12T04:00:00.294Z,21.30
2022-12-12T04:04:41.652Z,21.25
2022-12-12T04:09:03.342Z,21.50
2022-12-12T04:13:07.662Z,22.20
2022-12-12T04:17:11.737Z,20.00
2022-12-12T04:21:57.224Z,21.35
2022-12-12T04:26:21.734Z,20.63
2022-12-12T04:30:23.228Z,24.15
2022-12-12T04:34:44.159Z,22.10
2022-12-12T04:38:46.465Z,19.83
2022-12-12T04:42:54.998Z,20.27
2022-12-12T04:46:57.429Z,20.88
2022-12-12T04:51:01.021Z,20.83
2022-12-12T04:55:10.185Z,19.00
2022-12-12T04:59:12.615Z,20.00
2022-12-12T05:03:29.459Z,19.00
2022-12-12T05:07:40.003Z,19.20
2022-12-12T05:11:42.399Z,19.30
2022-12-12T05:15:45.144Z,20.00
2022-12-12T05:19:46.606Z,21.65
2022-12-12T05:23:48.018Z,20.95
2022-12-12T05:27:49.588Z,20.73
2022-12-12T05:31:51.175Z,22.60
2022-12-12T05:35:52.601Z,24.65
2022-12-12T05:39:53.985Z,22.95
2022-12-12T05:43:55.436Z,22.35
2022-12-12T05:47:57.851Z,21.40
2022-12-12T05:51:59.282Z,21.58
2022-12-12T05:56:00.753Z,22.60
2022-12-12T06:00:02.484Z,19.90
2022-12-12T06:04:04.084Z,21.50
2022-12-12T06:08:05.832Z,21.63
2022-12-12T06:12:07.495Z,21.60
2022-12-12T06:16:10.812Z,21.23
2022-12-12T06:20:12.244Z,20.80
2022-12-12T06:24:13.713Z,20.00
2022-12-12T06:28:15.112Z,20.98
2022-12-12T06:32:16.560Z,22.05
2022-12-12T06:36:24.296Z,22.20
2022-12-12T06:40:25.809Z,21.13
2022-12-12T06:44:27.306Z,20.73
2022-12-12T06:48:29.919Z,20.38
2022-12-12T06:52:31.346Z,23.20
2022-12-12T06:56:32.749Z,23.52
2022-12-12T07:00:34.535Z,21.85
2022-12-12T07:04:35.957Z,24.05
2022-12-12T07:08:38.119Z,24.33
2022-12-12T07:12:39.635Z,24.08
2022-12-12T07:16:41.046Z,22.23
2022-12-12T07:20:43.926Z,22.35
2022-12-12T07:24:45.330Z,24.17
2022-12-12T07:28:47.195Z,23.65
2022-12-12T07:32:48.615Z,22.73
2022-12-12T07:36:50.070Z,22.27
2022-12-12T07:40:51.579Z,23.00
2022-12-12T07:44:53.024Z,21.13
2022-12-12T07:48:54.601Z,23.63
2022-12-12T07:52:55.927Z,22.20
2022-12-12T07:56:59.300Z,22.45
2022-12-12T08:01:00.665Z,20.50
2022-12-12T08:05:02.091Z,21.80
2022-12-12T08:09:03.639Z,21.33
2022-12-12T08:13:05.089Z,22.08
2022-12-12T08:17:06.480Z,24.60
2022-12-12T08:21:09.544Z,22.02
2022-12-12T08:25:11.224Z,22.90
2022-12-12T08:29:12.965Z,22.33
2022-12-12T08:33:14.347Z,22.52
2022-12-12T08:37:15.718Z,21.80
2022-12-12T08:41:17.486Z,21.83
2022-12-12T08:45:18.860Z,23.67
2022-12-12T08:49:20.389Z,24.15
2022-12-12T08:53:21.841Z,22.70
2022-12-12T08:57:26.065Z,22.90
2022-12-12T09:01:28.204Z,36.13
2022-12-12T09:05:29.626Z,28.15
2022-12-12T09:09:31.222Z,23.10
2022-12-12T09:13:33.220Z,22.48
2022-12-12T09:17:34.606Z,21.55
2022-12-12T09:21:36.030Z,21.55
2022-12-12T09:25:41.336Z,20.20
2022-12-12T09:29:44.055Z,21.55
2022-12-12T09:33:45.528Z,21.73
2022-12-12T09:37:46.954Z,23.65
2022-12-12T09:41:48.614Z,20.15
2022-12-12T09:45:50.290Z,23.30
2022-12-12T09:49:54.349Z,21.33
2022-12-12T09:53:55.760Z,20.83
2022-12-12T09:58:03.204Z,21.08
2022-12-12T10:02:34.735Z,22.55
2022-12-12T10:06:45.498Z,21.95
2022-12-12T10:10:54.485Z,17.73
2022-12-12T10:15:02.722Z,21.75
2022-12-12T10:19:10.718Z,20.05
2022-12-12T10:23:36.350Z,21.05
2022-12-12T10:27:37.828Z,20.95
2022-12-12T10:31:46.493Z,19.88
2022-12-12T10:35:58.028Z,19.55
2022-12-12T10:40:32.268Z,20.15
2022-12-12T10:44:48.692Z,21.10
2022-12-12T10:48:51.124Z,19.37
2022-12-12T10:52:52.938Z,20.88
2022-12-12T10:57:20.859Z,20.13
2022-12-12T11:02:00.269Z,18.75
2022-12-12T11:05:52.916Z,18.70
2022-12-12T11:09:58.960Z,18.60
2022-12-12T11:14:05.853Z,18.50
2022-12-12T11:18:14.753Z,19.65
2022-12-12T11:22:16.241Z,17.88
2022-12-12T11:26:19.163Z,16.48
2022-12-12T11:30:24.756Z,15.15
2022-12-12T11:34:27.823Z,16.33
2022-12-12T11:38:38.321Z,16.40
2022-12-12T11:42:40.060Z,15.27
2022-12-12T11:46:41.450Z,14.80
2022-12-12T11:50:46.451Z,14.32
2022-12-12T11:54:48.201Z,14.40
2022-12-12T11:59:12.552Z,13.73
2022-12-12T12:03:31.804Z,12.95
2022-12-12T12:08:01.902Z,12.75
2022-12-12T12:12:15.988Z,12.30
2022-12-12T12:16:23.664Z,11.77
2022-12-12T12:20:39.643Z,10.60
2022-12-12T12:25:01.674Z,10.95
2022-12-12T12:29:15.836Z,10.07
2022-12-12T12:33:26.214Z,9.30
2022-12-12T12:37:57.067Z,7.95
2022-12-12T12:42:01.370Z,7.93
2022-12-12T12:46:11.821Z,7.72
2022-12-12T12:50:19.109Z,8.00
2022-12-12T12:54:28.503Z,6.75
2022-12-12T12:58:38.363Z,9.05
2022-12-12T13:03:10.828Z,6.82
2022-12-12T13:07:41.373Z,8.57
2022-12-12T13:11:45.824Z,7.35
2022-12-12T13:15:50.572Z,6.53
2022-12-12T13:19:53.769Z,3.85
2022-12-12T13:24:12.794Z,3.63
2022-12-12T13:28:21.577Z,4.28
2022-12-12T13:32:39.464Z,4.97
2022-12-12T13:36:44.255Z,4.32
2022-12-12T13:40:55.826Z,4.78
2022-12-12T13:45:32.474Z,6.15
2022-12-12T13:49:46.176Z,4.88
2022-12-12T13:53:47.532Z,5.53
2022-12-12T13:58:02.130Z,5.97
2022-12-12T14:02:23.123Z,5.55
2022-12-12T14:06:28.155Z,4.93
2022-12-12T14:10:39.974Z,5.57
2022-12-12T14:14:42.558Z,5.25
2022-12-12T14:18:50.002Z,5.50
2022-12-12T14:26:52.736Z,7.60
2022-12-12T14:30:57.245Z,8.70
2022-12-12T14:35:07.241Z,9.05
2022-12-12T14:39:17.599Z,9.02
2022-12-12T14:43:27.478Z,8.63
2022-12-12T14:47:28.895Z,9.25
2022-12-12T14:51:33.988Z,8.75
2022-12-12T14:55:35.449Z,7.68
2022-12-12T14:59:41.033Z,8.77
2022-12-12T15:03:48.305Z,9.38
2022-12-12T15:07:58.232Z,10.02
2022-12-12T15:12:21.251Z,9.93
2022-12-12T15:16:44.184Z,10.70
2022-12-12T15:20:49.030Z,10.13
2022-12-12T15:24:51.355Z,10.43
2022-12-12T15:28:53.401Z,10.82
2022-12-12T15:32:54.963Z,10.90
2022-12-12T15:36:56.419Z,11.50
2022-12-12T15:40:59.438Z,12.93
2022-12-12T15:45:01.064Z,11.95
2022-12-12T15:49:02.469Z,12.75
2022-12-12T15:53:24.659Z,11.30
2022-12-12T15:57:29.103Z,11.43
2022-12-12T16:01:30.883Z,12.23
2022-12-12T16:05:37.094Z,12.10
2022-12-12T16:09:38.659Z,11.68
2022-12-12T16:13:41.803Z,12.98
2022-12-12T16:17:57.937Z,13.43
2022-12-12T16:22:04.594Z,14.18
2022-12-12T16:26:06.263Z,14.87
2022-12-12T16:30:07.880Z,15.95
2022-12-12T16:34:09.272Z,14.68
2022-12-12T16:38:16.222Z,14.32
2022-12-12T16:42:19.455Z,12.75
2022-12-12T16:46:23.247Z,14.43
2022-12-12T16:50:25.828Z,15.25
2022-12-12T16:54:27.621Z,15.10
2022-12-12T16:58:29.255Z,15.20
2022-12-12T17:02:30.774Z,15.52
2022-12-12T17:06:32.478Z,15.93
2022-12-12T17:10:34.714Z,16.00
2022-12-12T17:14:37.469Z,15.40
2022-12-12T17:18:39.398Z,16.85
2022-12-12T17:22:41.461Z,14.48
2022-12-12T17:26:42.907Z,14.70
2022-12-12T17:30:45.375Z,16.60
2022-12-12T17:34:46.772Z,15.90
2022-12-12T17:38:48.375Z,15.55
2022-12-12T17:42:50.300Z,14.18
2022-12-12T17:46:53.236Z,16.08
2022-12-12T17:51:02.101Z,17.15
2022-12-12T17:55:53.270Z,15.40
2022-12-12T17:59:25.232Z,14.90
2022-12-12T18:03:26.795Z,14.55
2022-12-12T18:07:28.220Z,15.02
2022-12-12T18:11:32.223Z,14.75
2022-12-12T18:15:33.731Z,17.65
2022-12-12T18:19:35.097Z,20.63
2022-12-12T18:23:36.870Z,19.13
2022-12-12T18:27:40.131Z,16.35
2022-12-12T18:31:41.599Z,17.70
2022-12-12T18:35:43.609Z,18.35
2022-12-12T18:39:44.970Z,16.83
2022-12-12T18:43:46.380Z,17.15
2022-12-12T18:47:47.749Z,16.10
2022-12-12T18:51:49.346Z,17.92
2022-12-12T18:55:51.143Z,16.70
2022-12-12T18:59:52.518Z,17.58
2022-12-12T19:03:58.544Z,16.65
2022-12-12T19:08:00.001Z,18.65
2022-12-12T19:12:02.452Z,24.30
2022-12-12T19:16:10.726Z,21.38
2022-12-12T19:20:13.049Z,17.63
2022-12-12T19:24:14.693Z,18.85
2022-12-12T19:28:16.065Z,18.42
2022-12-12T19:32:17.509Z,19.67
2022-12-12T19:36:28.632Z,19.02
2022-12-12T19:40:30.035Z,19.92
2022-12-12T19:44:31.494Z,19.52
2022-12-12T19:48:33.374Z,21.02
2022-12-12T19:52:34.733Z,18.52
2022-12-12T19:56:37.501Z,16.38
2022-12-12T20:00:38.915Z,17.20
2022-12-12T20:04:41.535Z,18.13
2022-12-12T20:08:43.131Z,19.02
2022-12-12T20:12:56.116Z,18.08
2022-12-12T20:17:02.314Z,19.25
2022-12-12T20:21:04.743Z,19.20
2022-12-12T20:25:06.645Z,18.83
2022-12-12T20:29:09.055Z,20.85
2022-12-12T20:33:10.464Z,19.67
2022-12-12T20:37:15.346Z,19.23
2022-12-12T20:41:23.379Z,21.08
2022-12-12T20:45:24.697Z,20.75
2022-12-12T20:49:28.685Z,21.27
2022-12-12T20:53:34.909Z,20.30
2022-12-12T20:57:37.958Z,21.10
2022-12-12T21:01:39.393Z,22.17
2022-12-12T21:05:40.835Z,21.23
2022-12-12T21:09:42.271Z,21.08
2022-12-12T21:13:43.852Z,21.73
2022-12-12T21:17:45.536Z,20.15
2022-12-12T21:21:47.045Z,28.60
2022-12-12T21:25:48.501Z,26.13
2022-12-12T21:29:49.857Z,22.42
2022-12-12T21:33:51.219Z,21.48
2022-12-12T21:37:52.617Z,22.52
2022-12-12T21:41:54.995Z,26.48
2022-12-12T21:45:56.509Z,19.80
2022-12-12T21:49:57.906Z,20.45
2022-12-12T21:53:59.311Z,22.38
2022-12-12T21:58:00.646Z,21.38
2022-12-12T22:02:02.046Z,20.63
2022-12-12T22:06:15.175Z,19.88
2022-12-12T22:10:16.627Z,20.30
2022-12-12T22:14:19.166Z,19.85
2022-12-12T22:18:20.603Z,21.15
2022-12-12T22:22:22.503Z,19.65
2022-12-12T22:26:26.097Z,51.85
2022-12-12T22:30:27.431Z,21.73
2022-12-12T22:34:28.800Z,22.65
2022-12-12T22:38:33.404Z,20.15
2022-12-12T22:42:37.926Z,22.17
2022-12-12T22:46:43.870Z,20.30
2022-12-12T22:50:45.918Z,17.80
2022-12-12T22:54:47.305Z,19.55
2022-12-12T22:58:48.671Z,19.00
2022-12-12T23:02:50.132Z,20.50
2022-12-12T23:06:51.524Z,20.02
2022-12-12T23:10:52.940Z,18.60
2022-12-12T23:14:54.860Z,19.67
2022-12-12T23:18:56.931Z,19.85
2022-12-12T23:22:58.430Z,19.92
2022-12-12T23:26:59.850Z,21.38
2022-12-12T23:31:01.780Z,20.33
2022-12-12T23:35:03.206Z,20.30
2022-12-12T23:39:07.510Z,20.42
2022-12-12T23:43:09.177Z,18.80
2022-12-12T23:47:10.581Z,21.15
2022-12-12T23:51:12.020Z,20.95
2022-12-12T23:55:13.493Z,19.20
2022-12-12T23:59:18.294Z,19.83
